Startpagina
METAR-TAF:

METAR-TAF

Vliegvelden :

Colonia del Sacramento, Uruguay

breedte: 34-27S, lengte: 057-50W, hoogte: 23 m

Actueel weer

Dit bericht is 12 minuten geleden gemaakt, om 22:00 UTC
Wind 5 kt uit het zuiden
Temperatuur 23°C
Vochtigheid 61%
Druk 1013 hPa
Zicht 10 km of meer
geen wolken onder 1500 m en geen cumulonimbus

METAR: SUCA 232200Z 18005KT CAVOK 23/15 Q1013

Tijdstip: 19:12 (22:12 UTC)

Verwachting

Dit bericht is 4 uur en het 42 minuten geleden gemaakt, om 17:30 UTC
Verwachting geldig van 23 om 18 UTC tot 24 om 18 UTC
Wind 8 kt uit het zuidoosten
Zicht 10 km of meer
Weinig wolken op 3000 ft
Gebroken wolken op 20000 ft
Wijzigt naar
van 24 om 02 UTC tot 24 om 04 UTC
Wind 15 kt uit het noorden
Zicht 10 km of meer
geen wolken onder 1500 m en geen cumulonimbus

TAF: SUCA 231730Z 2318/2418 14008KT 9999 FEW030 BKN200 TX30/2418Z TN17/2410Z BECMG 2402/2404 01015KT CAVOK

Waarnemingen en weersverwachtingen van meer dan 4000 vliegvelden (METAR en TAF).

De beschikbare stations zijn de gele en rode punten op de kaart.

Ga met uw muis naar het station om de naam te zien.

Klik dan om waarnemingen en weersverwachtingen te zien.

kaart wijzigen: klik op de groene knoppen met een zwart kruis om in te zoomen, op de groene knop met een streepje om uit te zoomen of op de groene pijlen voor aangrenzende kaarten.


METAR-TAF: